Time;durP1;ratioP1;P1;durP2;ratioP2;P2;SDS_P1;SDS_P2;PMS_P1;PMS_P2;Temp;Humidity;BMP_temperature;BMP_pressure;BME280_temperature;BME280_humidity;BME280_pressure;Samples;Min_cycle;Max_cycle;Signal;HPM_P1;HPM_P2
2024/01/13 00:01:58;;;;;;;19.50;11.07;;;;;;;;;;5046909;27;99957;-75
2024/01/13 00:04:24;;;;;;;10.13;8.98;;;;;;;;;;5046255;27;100069;-75
2024/01/13 00:06:51;;;;;;;15.00;9.70;;;;;;;;;;5047504;27;100450;-74
2024/01/13 00:09:17;;;;;;;14.57;10.93;;;;;;;;;;5046952;27;99628;-74
2024/01/13 00:11:44;;;;;;;15.07;10.05;;;;;;;;;;5050103;27;100389;-75
2024/01/13 00:14:10;;;;;;;12.65;9.82;;;;;;;;;;5046123;27;99997;-75
2024/01/13 00:16:37;;;;;;;15.05;10.88;;;;;;;;;;5046435;27;100249;-76
2024/01/13 00:19:03;;;;;;;15.13;10.90;;;;;;;;;;5045167;27;99893;-75
2024/01/13 00:21:30;;;;;;;16.10;11.82;;;;;;;;;;5045397;27;99253;-76
2024/01/13 00:23:56;;;;;;;12.95;10.93;;;;;;;;;;5045761;27;100569;-75
2024/01/13 00:26:23;;;;;;;24.00;11.15;;;;;;;;;;5043576;27;99271;-74
2024/01/13 00:28:50;;;;;;;18.00;11.30;;;;;;;;;;5045354;27;100896;-75
2024/01/13 00:31:16;;;;;;;13.63;11.45;;;;;;;;;;5046105;27;99426;-75
2024/01/13 00:33:43;;;;;;;15.48;10.73;;;;;;;;;;5049301;27;99994;-75
2024/01/13 00:36:10;;;;;;;12.75;10.45;;;;;;;;;;5045903;27;100175;-75
2024/01/13 00:38:37;;;;;;;14.13;8.85;;;;;;;;;;5049494;27;100436;-74
2024/01/13 00:41:05;;;;;;;14.82;9.35;;;;;;;;;;5058518;27;99822;-74
2024/01/13 00:43:33;;;;;;;20.20;10.07;;;;;;;;;;5053475;27;100113;-74
2024/01/13 00:46:00;;;;;;;12.45;9.10;;;;;;;;;;5057300;27;100186;-75
2024/01/13 00:48:26;;;;;;;12.23;8.75;;;;;;;;;;5056865;27;100169;-74
2024/01/13 00:51:08;;;;;;;12.45;8.43;;;;;;;;;;5052562;27;100510;-74
2024/01/13 00:53:36;;;;;;;12.43;9.05;;;;;;;;;;5057685;27;99994;-74
2024/01/13 00:56:03;;;;;;;9.48;7.75;;;;;;;;;;5057742;27;99898;-75
2024/01/13 00:58:29;;;;;;;10.68;8.80;;;;;;;;;;5059466;27;100708;-75
2024/01/13 01:01:09;;;;;;;9.77;6.90;;;;;;;;;;5051880;27;99939;-74
2024/01/13 01:03:36;;;;;;;11.40;7.65;;;;;;;;;;5057381;27;100197;-74
2024/01/13 01:06:04;;;;;;;7.63;6.53;;;;;;;;;;5057841;27;99888;-74
2024/01/13 01:08:30;;;;;;;11.80;7.40;;;;;;;;;;5054696;27;99847;-75
2024/01/13 01:11:05;;;;;;;7.35;6.50;;;;;;;;;;5052950;27;101424;-75
2024/01/13 01:13:32;;;;;;;10.25;7.15;;;;;;;;;;5056388;27;100940;-74
2024/01/13 01:15:58;;;;;;;8.30;6.70;;;;;;;;;;5052965;27;99850;-74
2024/01/13 01:18:25;;;;;;;9.25;6.45;;;;;;;;;;5059750;27;100194;-75
2024/01/13 01:21:09;;;;;;;7.45;6.75;;;;;;;;;;5055378;27;98937;-74
2024/01/13 01:23:35;;;;;;;8.68;6.88;;;;;;;;;;5052263;27;100073;-74
2024/01/13 01:26:02;;;;;;;7.72;7.03;;;;;;;;;;5051839;27;100293;-74
2024/01/13 01:28:28;;;;;;;11.38;6.80;;;;;;;;;;5051236;27;101409;-73
2024/01/13 01:31:01;;;;;;;6.88;6.28;;;;;;;;;;5052161;27;100003;-74
2024/01/13 01:33:28;;;;;;;8.15;7.32;;;;;;;;;;5052698;27;100748;-73
2024/01/13 01:35:55;;;;;;;7.95;7.10;;;;;;;;;;5058016;27;99695;-74
2024/01/13 01:38:21;;;;;;;7.43;6.35;;;;;;;;;;5054484;27;100154;-74
2024/01/13 01:41:05;;;;;;;8.65;5.90;;;;;;;;;;5062623;27;99851;-75
2024/01/13 01:43:31;;;;;;;8.40;7.15;;;;;;;;;;5058305;27;100237;-74
2024/01/13 01:45:59;;;;;;;8.25;6.25;;;;;;;;;;5058846;27;99026;-75
2024/01/13 01:48:32;;;;;;;6.90;6.28;;;;;;;;;;5058897;27;99945;-74
2024/01/13 01:51:06;;;;;;;7.90;6.53;;;;;;;;;;5060523;27;100127;-75
2024/01/13 01:53:34;;;;;;;7.90;7.03;;;;;;;;;;5057005;27;100973;-74
2024/01/13 01:56:04;;;;;;;9.98;6.53;;;;;;;;;;5055752;27;100740;-74
2024/01/13 01:58:31;;;;;;;9.48;6.95;;;;;;;;;;5053632;27;100018;-75
2024/01/13 02:01:02;;;;;;;8.38;7.57;;;;;;;;;;5054829;27;100242;-74
2024/01/13 02:03:29;;;;;;;8.73;7.45;;;;;;;;;;5064645;27;100159;-73
2024/01/13 02:05:58;;;;;;;12.48;7.70;;;;;;;;;;5061401;27;100071;-74
2024/01/13 02:08:25;;;;;;;8.07;7.25;;;;;;;;;;5065846;27;100449;-74
2024/01/13 02:11:04;;;;;;;14.70;8.10;;;;;;;;;;5063038;27;99554;-74
2024/01/13 02:13:31;;;;;;;11.63;7.80;;;;;;;;;;5065801;27;100149;-74
2024/01/13 02:15:57;;;;;;;7.70;7.03;;;;;;;;;;5066761;27;99995;-74
2024/01/13 02:18:24;;;;;;;8.30;7.18;;;;;;;;;;5068096;27;101022;-74
2024/01/13 02:21:04;;;;;;;7.97;7.10;;;;;;;;;;5069180;27;100025;-74
2024/01/13 02:23:30;;;;;;;9.80;8.13;;;;;;;;;;5072490;27;99961;-76
2024/01/13 02:25:57;;;;;;;9.95;8.25;;;;;;;;;;5067908;27;100184;-75
2024/01/13 02:28:23;;;;;;;8.70;7.60;;;;;;;;;;5058093;27;99591;-74
2024/01/13 02:31:08;;;;;;;8.23;7.45;;;;;;;;;;5048527;27;100172;-74
2024/01/13 02:33:34;;;;;;;8.52;7.72;;;;;;;;;;5048297;27;99203;-75
2024/01/13 02:36:01;;;;;;;9.18;7.88;;;;;;;;;;5049049;27;99821;-75
2024/01/13 02:38:28;;;;;;;8.63;7.82;;;;;;;;;;5058729;27;100429;-74
2024/01/13 02:41:03;;;;;;;8.55;7.47;;;;;;;;;;5056647;27;100414;-74
2024/01/13 02:43:30;;;;;;;10.40;8.18;;;;;;;;;;5058951;27;100738;-75
2024/01/13 02:45:56;;;;;;;9.68;8.00;;;;;;;;;;5059263;27;100133;-75
2024/01/13 02:48:23;;;;;;;13.88;7.82;;;;;;;;;;5054366;27;99876;-74
2024/01/13 02:51:04;;;;;;;10.05;8.10;;;;;;;;;;5054127;27;100265;-74
2024/01/13 02:53:31;;;;;;;11.27;8.93;;;;;;;;;;5053400;27;100326;-74
2024/01/13 02:55:57;;;;;;;9.27;8.30;;;;;;;;;;5057448;27;99852;-74
2024/01/13 02:58:24;;;;;;;9.68;8.18;;;;;;;;;;5058947;27;100144;-75
2024/01/13 03:01:07;;;;;;;16.37;7.63;;;;;;;;;;5055651;27;100724;-74
2024/01/13 03:03:34;;;;;;;8.40;7.60;;;;;;;;;;5059762;27;100175;-74
2024/01/13 03:06:03;;;;;;;9.00;8.10;;;;;;;;;;5058925;27;100411;-73
2024/01/13 03:08:29;;;;;;;9.48;8.23;;;;;;;;;;5058176;27;100044;-74
2024/01/13 03:11:06;;;;;;;12.73;8.43;;;;;;;;;;5055732;27;100546;-74
2024/01/13 03:13:33;;;;;;;9.63;8.32;;;;;;;;;;5060783;27;100212;-74
2024/01/13 03:15:59;;;;;;;13.05;8.70;;;;;;;;;;5054921;27;100816;-74
2024/01/13 03:18:26;;;;;;;12.63;8.60;;;;;;;;;;5052387;27;99920;-74
2024/01/13 03:21:05;;;;;;;9.07;8.15;;;;;;;;;;5052224;27;100068;-74
2024/01/13 03:23:32;;;;;;;10.38;9.05;;;;;;;;;;5057823;27;100242;-74
2024/01/13 03:25:58;;;;;;;10.60;9.05;;;;;;;;;;5054769;27;99589;-74
2024/01/13 03:28:25;;;;;;;11.38;8.35;;;;;;;;;;5054427;27;100697;-75
2024/01/13 03:31:05;;;;;;;11.85;9.20;;;;;;;;;;5055472;27;99940;-74
2024/01/13 03:33:32;;;;;;;10.52;9.10;;;;;;;;;;5057289;27;100560;-74
2024/01/13 03:35:58;;;;;;;17.58;9.35;;;;;;;;;;5059343;27;100661;-74
2024/01/13 03:38:26;;;;;;;12.80;8.02;;;;;;;;;;5054803;27;99203;-74
2024/01/13 03:41:06;;;;;;;11.70;8.00;;;;;;;;;;5057888;27;99225;-74
2024/01/13 03:43:32;;;;;;;13.55;8.93;;;;;;;;;;5055451;27;99877;-74
2024/01/13 03:45:59;;;;;;;11.40;8.68;;;;;;;;;;5054435;27;101737;-75
2024/01/13 03:48:25;;;;;;;10.18;8.77;;;;;;;;;;5051251;27;99709;-75
2024/01/13 03:50:52;;;;;;;10.77;8.90;;;;;;;;;;5052056;27;100056;-75
2024/01/13 03:53:19;;;;;;;13.05;10.05;;;;;;;;;;5056896;27;100515;-74
2024/01/13 03:55:45;;;;;;;13.45;10.57;;;;;;;;;;5054153;27;100030;-74
2024/01/13 03:58:12;;;;;;;14.40;9.35;;;;;;;;;;5053298;27;100931;-74
2024/01/13 04:00:38;;;;;;;13.68;10.23;;;;;;;;;;5055818;27;100165;-74
2024/01/13 04:03:05;;;;;;;16.17;10.90;;;;;;;;;;5053809;27;100594;-75
2024/01/13 04:05:32;;;;;;;12.85;9.57;;;;;;;;;;5054064;27;99598;-74
2024/01/13 04:07:59;;;;;;;16.10;11.13;;;;;;;;;;5053411;27;100285;-74
2024/01/13 04:10:25;;;;;;;13.38;9.60;;;;;;;;;;5053253;27;99837;-75
2024/01/13 04:12:51;;;;;;;14.48;11.43;;;;;;;;;;5053826;27;101689;-75
2024/01/13 04:15:18;;;;;;;19.05;9.95;;;;;;;;;;5056316;27;99292;-74
2024/01/13 04:17:44;;;;;;;18.10;11.27;;;;;;;;;;5052525;27;100499;-75
2024/01/13 04:20:11;;;;;;;19.88;12.23;;;;;;;;;;5051498;27;100274;-75
2024/01/13 04:22:38;;;;;;;17.70;10.77;;;;;;;;;;5050719;27;100041;-75
2024/01/13 04:25:05;;;;;;;16.63;11.68;;;;;;;;;;5051994;27;100600;-75
2024/01/13 04:27:32;;;;;;;19.33;11.65;;;;;;;;;;5055957;27;100521;-74
2024/01/13 04:29:58;;;;;;;15.93;10.48;;;;;;;;;;5051874;27;100138;-74
2024/01/13 04:32:25;;;;;;;17.58;11.55;;;;;;;;;;5052190;27;100206;-75
2024/01/13 04:34:51;;;;;;;19.58;11.02;;;;;;;;;;5061062;27;99925;-74
2024/01/13 04:37:18;;;;;;;18.30;9.93;;;;;;;;;;5055348;27;100767;-76
2024/01/13 04:39:44;;;;;;;15.25;7.82;;;;;;;;;;5058781;27;100591;-74
2024/01/13 04:42:11;;;;;;;13.95;8.98;;;;;;;;;;5059697;27;99678;-74
2024/01/13 04:44:37;;;;;;;19.33;9.75;;;;;;;;;;5054493;27;100593;-74
2024/01/13 04:47:04;;;;;;;20.60;11.48;;;;;;;;;;5047299;27;100044;-75
2024/01/13 04:49:31;;;;;;;14.60;8.63;;;;;;;;;;5066390;27;100029;-74
2024/01/13 04:51:57;;;;;;;15.40;10.43;;;;;;;;;;5066734;27;100301;-74
2024/01/13 04:54:24;;;;;;;11.93;8.63;;;;;;;;;;5066081;27;100118;-74
2024/01/13 04:56:50;;;;;;;15.38;9.27;;;;;;;;;;5070275;27;100098;-75
2024/01/13 04:59:17;;;;;;;12.75;8.95;;;;;;;;;;5065553;27;99955;-74
2024/01/13 05:01:43;;;;;;;17.52;9.80;;;;;;;;;;5052705;27;98960;-75
2024/01/13 05:04:10;;;;;;;13.00;8.40;;;;;;;;;;5046082;27;100128;-74
2024/01/13 05:06:37;;;;;;;14.48;8.98;;;;;;;;;;5045617;27;99876;-75
2024/01/13 05:09:04;;;;;;;12.93;9.50;;;;;;;;;;5046155;27;100080;-75
2024/01/13 05:11:30;;;;;;;14.65;9.52;;;;;;;;;;5047987;27;100911;-75
2024/01/13 05:13:57;;;;;;;16.25;9.02;;;;;;;;;;5056762;27;100210;-74
2024/01/13 05:16:23;;;;;;;12.13;8.85;;;;;;;;;;5053400;27;100176;-75
2024/01/13 05:18:50;;;;;;;14.55;9.35;;;;;;;;;;5055612;27;101052;-75
2024/01/13 05:21:17;;;;;;;11.48;7.93;;;;;;;;;;5055251;27;99898;-74
2024/01/13 05:23:43;;;;;;;10.90;7.47;;;;;;;;;;5055874;27;100342;-75
2024/01/13 05:26:10;;;;;;;12.05;7.90;;;;;;;;;;5050798;27;99683;-74
2024/01/13 05:28:36;;;;;;;12.88;7.38;;;;;;;;;;5054525;27;100205;-75
2024/01/13 05:31:02;;;;;;;11.77;7.25;;;;;;;;;;5053528;27;100027;-74
2024/01/13 05:33:29;;;;;;;11.07;7.75;;;;;;;;;;5054081;27;100049;-75
2024/01/13 05:35:56;;;;;;;10.95;7.22;;;;;;;;;;5054436;27;100036;-75
2024/01/13 05:38:22;;;;;;;9.07;6.57;;;;;;;;;;5053641;27;100115;-75
2024/01/13 05:40:49;;;;;;;7.63;5.95;;;;;;;;;;5059952;27;100262;-75
2024/01/13 05:43:15;;;;;;;9.32;5.82;;;;;;;;;;5057325;27;100860;-74
2024/01/13 05:45:43;;;;;;;7.97;5.40;;;;;;;;;;5053032;27;100181;-74
2024/01/13 05:48:10;;;;;;;6.13;5.47;;;;;;;;;;5054865;27;99979;-74
2024/01/13 05:50:37;;;;;;;7.88;5.82;;;;;;;;;;5052631;27;100195;-75
2024/01/13 05:53:03;;;;;;;8.95;6.13;;;;;;;;;;5062528;27;99956;-75
2024/01/13 05:55:30;;;;;;;9.25;6.63;;;;;;;;;;5057900;27;99229;-75
2024/01/13 05:57:57;;;;;;;16.45;6.85;;;;;;;;;;5062100;27;100087;-75
2024/01/13 06:00:23;;;;;;;9.20;7.10;;;;;;;;;;5059426;27;101273;-76
2024/01/13 06:02:50;;;;;;;10.88;7.13;;;;;;;;;;5067539;27;101229;-75
2024/01/13 06:05:16;;;;;;;19.63;8.60;;;;;;;;;;5062111;27;100426;-74
2024/01/13 06:07:43;;;;;;;8.18;7.35;;;;;;;;;;5059219;27;99889;-74
2024/01/13 06:10:10;;;;;;;15.38;10.35;;;;;;;;;;5056413;27;100313;-74
2024/01/13 06:12:37;;;;;;;17.13;8.55;;;;;;;;;;5061744;27;99949;-75
2024/01/13 06:15:03;;;;;;;16.77;7.70;;;;;;;;;;5068799;27;99770;-75
2024/01/13 06:17:30;;;;;;;11.98;8.95;;;;;;;;;;5056466;27;99412;-74
2024/01/13 06:19:57;;;;;;;18.13;8.18;;;;;;;;;;5059310;27;100683;-75
2024/01/13 06:22:23;;;;;;;13.88;9.07;;;;;;;;;;5071982;27;99053;-74
2024/01/13 06:24:50;;;;;;;12.40;8.05;;;;;;;;;;5058794;27;100515;-75
2024/01/13 06:27:16;;;;;;;16.42;9.52;;;;;;;;;;5058967;27;100170;-75
2024/01/13 06:29:43;;;;;;;19.95;9.98;;;;;;;;;;5067232;27;100269;-75
2024/01/13 06:32:09;;;;;;;12.07;8.13;;;;;;;;;;5067410;27;98917;-75
2024/01/13 06:34:36;;;;;;;14.10;8.82;;;;;;;;;;5068413;27;99086;-75
2024/01/13 06:37:03;;;;;;;16.52;8.75;;;;;;;;;;5069027;27;100142;-77
2024/01/13 06:39:30;;;;;;;13.35;8.65;;;;;;;;;;5067856;27;99027;-76
2024/01/13 06:41:56;;;;;;;17.17;9.25;;;;;;;;;;5069107;27;100089;-75
2024/01/13 06:44:23;;;;;;;14.63;10.38;;;;;;;;;;5072198;27;100265;-76
2024/01/13 06:47:03;;;;;;;17.67;8.55;;;;;;;;;;5067823;27;100468;-76
2024/01/13 06:49:29;;;;;;;13.60;8.93;;;;;;;;;;5068368;27;101077;-76
2024/01/13 06:51:56;;;;;;;11.40;8.55;;;;;;;;;;5067712;27;99934;-76
2024/01/13 06:54:23;;;;;;;13.82;8.77;;;;;;;;;;5068656;27;100035;-75
2024/01/13 06:56:49;;;;;;;13.00;9.05;;;;;;;;;;5068170;27;99357;-75
2024/01/13 06:59:16;;;;;;;12.65;8.35;;;;;;;;;;5067248;27;100096;-75
2024/01/13 07:01:42;;;;;;;17.65;8.43;;;;;;;;;;5067738;27;100040;-76
2024/01/13 07:04:09;;;;;;;13.27;8.52;;;;;;;;;;5067805;27;99475;-75
2024/01/13 07:06:36;;;;;;;10.65;8.13;;;;;;;;;;5071730;27;100610;-75
2024/01/13 07:09:03;;;;;;;11.45;8.20;;;;;;;;;;5068142;27;100531;-75
2024/01/13 07:11:30;;;;;;;11.57;7.25;;;;;;;;;;5068754;27;99931;-75
2024/01/13 07:13:57;;;;;;;13.40;8.45;;;;;;;;;;5067005;27;100063;-75
2024/01/13 07:16:23;;;;;;;11.30;7.65;;;;;;;;;;5067486;27;99313;-76
2024/01/13 07:18:50;;;;;;;11.05;8.07;;;;;;;;;;5068277;27;99849;-76
2024/01/13 07:21:16;;;;;;;7.45;6.55;;;;;;;;;;5053436;27;100176;-75
2024/01/13 07:23:43;;;;;;;8.15;6.18;;;;;;;;;;5047986;27;100698;-75
2024/01/13 07:26:10;;;;;;;7.25;6.50;;;;;;;;;;5047590;27;100214;-74
2024/01/13 07:28:36;;;;;;;10.57;7.18;;;;;;;;;;5050471;27;99965;-75
2024/01/13 07:31:03;;;;;;;5.72;5.10;;;;;;;;;;5047941;27;100036;-75
2024/01/13 07:33:30;;;;;;;6.90;5.75;;;;;;;;;;5047785;27;99098;-74
2024/01/13 07:35:57;;;;;;;9.57;6.03;;;;;;;;;;5046424;27;99412;-75
2024/01/13 07:38:24;;;;;;;5.97;5.38;;;;;;;;;;5047181;27;100047;-75
2024/01/13 07:40:50;;;;;;;6.97;5.07;;;;;;;;;;5047439;27;100825;-76
2024/01/13 07:43:16;;;;;;;9.73;6.10;;;;;;;;;;5046589;27;99310;-74
2024/01/13 07:45:43;;;;;;;7.35;4.93;;;;;;;;;;5047445;27;99676;-75
2024/01/13 07:48:09;;;;;;;8.07;5.55;;;;;;;;;;5046312;27;99976;-75
2024/01/13 07:50:36;;;;;;;8.90;5.80;;;;;;;;;;5050692;27;100431;-75
2024/01/13 07:53:03;;;;;;;7.20;4.93;;;;;;;;;;5046831;27;99938;-76
2024/01/13 07:55:29;;;;;;;5.30;4.80;;;;;;;;;;5047067;27;99469;-75
2024/01/13 07:57:56;;;;;;;10.40;4.65;;;;;;;;;;5046992;27;100138;-75
2024/01/13 08:00:23;;;;;;;8.20;5.07;;;;;;;;;;5047097;27;99234;-76
2024/01/13 08:02:49;;;;;;;4.15;3.78;;;;;;;;;;5045663;27;101072;-76
2024/01/13 08:05:16;;;;;;;5.15;4.10;;;;;;;;;;5046526;27;99989;-75
2024/01/13 08:07:42;;;;;;;4.03;3.63;;;;;;;;;;5046950;27;100049;-74
2024/01/13 08:10:09;;;;;;;4.63;3.85;;;;;;;;;;5046344;27;100192;-76
2024/01/13 08:12:36;;;;;;;4.72;3.80;;;;;;;;;;5052380;27;100030;-77
2024/01/13 08:15:03;;;;;;;4.00;3.67;;;;;;;;;;5046259;27;100267;-76
2024/01/13 08:17:30;;;;;;;7.15;3.92;;;;;;;;;;5045409;27;99002;-76
2024/01/13 08:19:56;;;;;;;6.32;4.25;;;;;;;;;;5046792;27;99960;-76
2024/01/13 08:22:23;;;;;;;5.18;4.00;;;;;;;;;;5046631;27;99519;-77
2024/01/13 08:24:49;;;;;;;7.38;4.60;;;;;;;;;;5046174;27;100339;-77
2024/01/13 08:27:16;;;;;;;9.43;3.95;;;;;;;;;;5046364;27;99872;-77
2024/01/13 08:29:42;;;;;;;3.40;3.15;;;;;;;;;;5046523;27;100017;-77
2024/01/13 08:32:09;;;;;;;3.95;3.08;;;;;;;;;;5049043;27;99869;-77
2024/01/13 08:34:36;;;;;;;6.45;4.47;;;;;;;;;;5046258;27;100151;-77
2024/01/13 08:37:05;;;;;;;5.40;5.00;;;;;;;;;;5046251;27;99195;-77
2024/01/13 08:39:32;;;;;;;6.55;3.92;;;;;;;;;;5045862;27;99943;-77
2024/01/13 08:41:58;;;;;;;7.05;6.45;;;;;;;;;;5046208;27;100319;-77
2024/01/13 08:44:25;;;;;;;4.55;4.15;;;;;;;;;;5046197;27;99941;-76
2024/01/13 08:46:51;;;;;;;4.10;3.80;;;;;;;;;;5046145;27;99412;-76
2024/01/13 08:49:18;;;;;;;5.15;4.75;;;;;;;;;;5046030;27;100590;-76
2024/01/13 08:51:44;;;;;;;5.20;4.68;;;;;;;;;;5045290;27;99227;-76
2024/01/13 08:54:11;;;;;;;10.73;5.45;;;;;;;;;;5049718;27;100596;-77
2024/01/13 08:56:37;;;;;;;4.18;3.88;;;;;;;;;;5046478;27;101031;-77
2024/01/13 08:59:07;;;;;;;4.22;3.83;;;;;;;;;;5045355;27;100275;-76
2024/01/13 09:01:33;;;;;;;5.35;4.88;;;;;;;;;;5046007;27;100279;-77
2024/01/13 09:04:05;;;;;;;5.18;4.65;;;;;;;;;;5046032;27;100327;-76
2024/01/13 09:06:32;;;;;;;6.97;4.88;;;;;;;;;;5045438;27;100009;-77
2024/01/13 09:08:58;;;;;;;5.60;4.53;;;;;;;;;;5046351;27;99357;-73
2024/01/13 09:11:25;;;;;;;7.53;4.88;;;;;;;;;;5061031;27;99453;-73
2024/01/13 09:14:06;;;;;;;3.08;2.45;;;;;;;;;;5065246;27;99270;-73
2024/01/13 09:16:33;;;;;;;5.55;4.35;;;;;;;;;;5069100;27;101193;-73
2024/01/13 09:18:59;;;;;;;13.18;5.43;;;;;;;;;;5066072;27;100762;-77
2024/01/13 09:21:26;;;;;;;5.15;4.57;;;;;;;;;;5058060;27;100154;-78
2024/01/13 09:24:06;;;;;;;6.10;5.50;;;;;;;;;;5045710;27;99865;-76
2024/01/13 09:26:33;;;;;;;6.78;6.18;;;;;;;;;;5044320;27;99815;-75
2024/01/13 09:29:02;;;;;;;7.38;5.13;;;;;;;;;;5045616;27;100126;-78
2024/01/13 09:31:28;;;;;;;6.93;5.78;;;;;;;;;;5045883;27;99955;-78
2024/01/13 09:34:07;;;;;;;8.27;6.43;;;;;;;;;;5045267;27;99144;-78
2024/01/13 09:36:35;;;;;;;13.15;8.73;;;;;;;;;;5046035;27;100257;-79
2024/01/13 09:39:01;;;;;;;8.90;6.40;;;;;;;;;;5048871;27;99890;-77
2024/01/13 09:41:29;;;;;;;9.90;5.88;;;;;;;;;;5044784;27;101051;-76
2024/01/13 09:44:08;;;;;;;11.77;5.32;;;;;;;;;;5051916;27;99116;-79
2024/01/13 09:46:35;;;;;;;7.15;5.90;;;;;;;;;;5064689;27;99873;-78
2024/01/13 09:49:05;;;;;;;7.05;6.10;;;;;;;;;;5043711;27;100178;-78
2024/01/13 09:51:32;;;;;;;15.77;6.82;;;;;;;;;;5050187;27;101411;-78
2024/01/13 09:54:05;;;;;;;7.82;5.80;;;;;;;;;;5047499;27;100037;-79
2024/01/13 09:56:33;;;;;;;15.30;6.93;;;;;;;;;;5045419;27;101806;-78
2024/01/13 09:59:00;;;;;;;9.00;6.95;;;;;;;;;;5053320;27;100087;-78
2024/01/13 10:01:28;;;;;;;6.65;6.07;;;;;;;;;;5052469;27;99190;-78
2024/01/13 10:04:01;;;;;;;10.98;6.70;;;;;;;;;;5044216;27;100162;-78
2024/01/13 10:06:28;;;;;;;9.45;7.07;;;;;;;;;;5044812;27;100396;-77
2024/01/13 10:08:55;;;;;;;11.32;8.52;;;;;;;;;;5041125;27;100686;-77
2024/01/13 10:11:21;;;;;;;9.70;8.15;;;;;;;;;;5047707;27;100246;-79
2024/01/13 10:14:00;;;;;;;7.38;6.35;;;;;;;;;;5047960;27;99281;-78
2024/01/13 10:16:29;;;;;;;18.77;9.23;;;;;;;;;;5044546;27;100242;-79
2024/01/13 10:18:55;;;;;;;10.32;8.30;;;;;;;;;;5048215;27;99298;-78
2024/01/13 10:21:23;;;;;;;10.07;8.48;;;;;;;;;;5052056;27;99957;-76
2024/01/13 10:24:02;;;;;;;15.77;10.60;;;;;;;;;;5050988;27;101406;-78
2024/01/13 10:26:29;;;;;;;15.50;10.85;;;;;;;;;;5052215;27;100182;-79
2024/01/13 10:28:56;;;;;;;14.60;11.75;;;;;;;;;;5045251;27;99228;-77
2024/01/13 10:31:23;;;;;;;17.95;9.95;;;;;;;;;;5053688;27;100143;-75
2024/01/13 10:34:02;;;;;;;17.02;10.27;;;;;;;;;;5061377;27;101057;-78
2024/01/13 10:36:30;;;;;;;14.93;10.80;;;;;;;;;;5044432;27;100411;-76
2024/01/13 10:38:58;;;;;;;15.02;11.20;;;;;;;;;;5052947;27;100113;-77
2024/01/13 10:41:28;;;;;;;16.08;11.70;;;;;;;;;;5058452;27;99904;-77
2024/01/13 10:44:02;;;;;;;20.10;12.13;;;;;;;;;;5064757;27;99385;-77
2024/01/13 10:46:31;;;;;;;16.77;12.18;;;;;;;;;;5067872;27;98809;-79
2024/01/13 10:49:02;;;;;;;18.00;11.82;;;;;;;;;;5055171;27;99050;-78
2024/01/13 10:51:35;;;;;;;16.35;12.27;;;;;;;;;;5046695;27;99252;-77
2024/01/13 10:54:02;;;;;;;17.35;13.18;;;;;;;;;;5059696;27;100467;-78
2024/01/13 10:56:29;;;;;;;17.98;12.20;;;;;;;;;;5060364;27;100891;-78
2024/01/13 10:58:57;;;;;;;19.27;13.35;;;;;;;;;;5051192;27;100688;-78
2024/01/13 11:01:26;;;;;;;20.65;13.23;;;;;;;;;;5050623;27;99909;-79
2024/01/13 11:04:03;;;;;;;20.92;13.15;;;;;;;;;;5053430;27;100273;-79
2024/01/13 11:06:31;;;;;;;23.23;15.60;;;;;;;;;;5056258;27;100166;-77
2024/01/13 11:08:58;;;;;;;19.13;15.15;;;;;;;;;;5053875;27;99444;-78
2024/01/13 11:11:27;;;;;;;24.65;17.00;;;;;;;;;;5069236;27;99018;-78
2024/01/13 11:14:16;;;;;;;24.40;17.67;;;;;;;;;;5063540;27;99987;-76
2024/01/13 11:16:47;;;;;;;24.52;16.95;;;;;;;;;;5055003;27;100753;-77
2024/01/13 11:19:14;;;;;;;27.77;18.17;;;;;;;;;;5049847;27;99916;-78
2024/01/13 11:21:47;;;;;;;26.70;18.27;;;;;;;;;;5051021;27;102733;-77
2024/01/13 11:24:13;;;;;;;24.60;17.15;;;;;;;;;;5058481;27;99980;-77
2024/01/13 11:26:46;;;;;;;27.73;19.50;;;;;;;;;;5053895;27;100480;-76
2024/01/13 11:29:16;;;;;;;32.95;20.02;;;;;;;;;;5052451;27;100030;-76
2024/01/13 11:31:44;;;;;;;27.40;18.45;;;;;;;;;;5052733;27;99455;-78
2024/01/13 11:34:14;;;;;;;31.38;19.48;;;;;;;;;;5047420;27;100006;-76
2024/01/13 11:36:45;;;;;;;40.90;20.27;;;;;;;;;;5053782;27;100248;-76
2024/01/13 11:39:13;;;;;;;43.20;20.80;;;;;;;;;;5047833;27;100130;-76
2024/01/13 11:41:39;;;;;;;31.08;20.40;;;;;;;;;;5053011;27;98557;-76
2024/01/13 11:44:07;;;;;;;33.35;19.52;;;;;;;;;;5058644;27;100063;-75
2024/01/13 11:46:35;;;;;;;30.70;21.85;;;;;;;;;;5055284;27;99717;-76
2024/01/13 11:49:03;;;;;;;34.22;22.05;;;;;;;;;;5057976;27;101169;-76
2024/01/13 11:51:48;;;;;;;31.23;21.02;;;;;;;;;;5065257;27;100359;-77
2024/01/13 11:54:19;;;;;;;34.25;20.92;;;;;;;;;;5051780;27;99963;-76
2024/01/13 11:56:48;;;;;;;29.80;18.55;;;;;;;;;;5067234;27;99264;-76
2024/01/13 11:59:15;;;;;;;30.88;21.15;;;;;;;;;;5049263;27;99963;-77
2024/01/13 12:01:41;;;;;;;33.30;21.90;;;;;;;;;;5047271;27;101494;-77
2024/01/13 12:04:09;;;;;;;29.00;20.63;;;;;;;;;;5050581;27;99677;-77
2024/01/13 12:06:36;;;;;;;39.45;21.92;;;;;;;;;;5054170;27;99900;-77
2024/01/13 12:09:03;;;;;;;40.15;22.67;;;;;;;;;;5051729;27;99166;-78
2024/01/13 12:11:29;;;;;;;33.88;21.20;;;;;;;;;;5058962;27;100864;-76
2024/01/13 12:14:03;;;;;;;39.63;22.65;;;;;;;;;;5055612;27;99868;-76
2024/01/13 12:16:30;;;;;;;27.13;16.40;;;;;;;;;;5054810;27;100388;-78
2024/01/13 12:18:56;;;;;;;32.97;16.48;;;;;;;;;;5054597;27;100441;-78
2024/01/13 12:21:23;;;;;;;34.17;21.83;;;;;;;;;;5060864;27;99997;-78
2024/01/13 12:24:05;;;;;;;29.65;20.88;;;;;;;;;;5049690;27;100143;-77
2024/01/13 12:26:32;;;;;;;36.70;21.33;;;;;;;;;;5059726;27;100361;-78
2024/01/13 12:28:59;;;;;;;33.50;22.05;;;;;;;;;;5064893;27;99261;-78
2024/01/13 12:31:26;;;;;;;36.15;22.40;;;;;;;;;;5060716;27;100653;-79
2024/01/13 12:34:09;;;;;;;36.20;21.70;;;;;;;;;;5052760;27;99916;-78
2024/01/13 12:36:36;;;;;;;27.40;20.27;;;;;;;;;;5057159;27;100828;-78
2024/01/13 12:39:03;;;;;;;37.88;21.55;;;;;;;;;;5056706;27;100142;-78
2024/01/13 12:41:29;;;;;;;26.30;15.93;;;;;;;;;;5055191;27;100714;-78
2024/01/13 12:43:58;;;;;;;30.55;20.27;;;;;;;;;;5050669;27;100127;-76
2024/01/13 12:46:24;;;;;;;34.92;22.92;;;;;;;;;;5056223;27;99497;-78
2024/01/13 12:48:51;;;;;;;31.95;20.40;;;;;;;;;;5059180;27;100046;-78
2024/01/13 12:51:18;;;;;;;31.15;20.13;;;;;;;;;;5047003;27;99570;-77
2024/01/13 12:53:46;;;;;;;33.05;21.33;;;;;;;;;;5049401;27;99938;-79
2024/01/13 12:56:13;;;;;;;28.52;19.63;;;;;;;;;;5059020;27;100235;-77
2024/01/13 12:58:40;;;;;;;32.00;19.38;;;;;;;;;;5053362;27;100241;-76
2024/01/13 13:01:06;;;;;;;22.58;14.95;;;;;;;;;;5051045;27;100062;-76
2024/01/13 13:03:33;;;;;;;32.03;18.92;;;;;;;;;;5058311;27;100388;-74
2024/01/13 13:06:00;;;;;;;27.13;17.50;;;;;;;;;;5053162;27;99929;-78
2024/01/13 13:08:27;;;;;;;27.23;18.90;;;;;;;;;;5054769;27;99016;-77
2024/01/13 13:10:53;;;;;;;22.40;15.35;;;;;;;;;;5053247;27;100249;-78
2024/01/13 13:13:21;;;;;;;28.83;17.95;;;;;;;;;;5052006;27;99935;-78
2024/01/13 13:15:47;;;;;;;30.17;18.25;;;;;;;;;;5057224;27;102441;-77
2024/01/13 13:18:14;;;;;;;31.48;19.30;;;;;;;;;;5055585;27;100139;-77
2024/01/13 13:20:41;;;;;;;28.38;18.08;;;;;;;;;;5058550;27;100047;-79
2024/01/13 13:23:07;;;;;;;34.13;18.75;;;;;;;;;;5055754;27;100153;-77
2024/01/13 13:25:36;;;;;;;23.75;16.33;;;;;;;;;;5052166;27;100831;-80
2024/01/13 13:28:07;;;;;;;27.75;18.77;;;;;;;;;;5057952;27;100673;-77
2024/01/13 13:30:33;;;;;;;27.67;18.90;;;;;;;;;;5057341;27;100160;-78
2024/01/13 13:33:00;;;;;;;30.38;20.58;;;;;;;;;;5054456;27;100202;-78
2024/01/13 13:35:28;;;;;;;34.45;20.45;;;;;;;;;;5052739;27;100097;-78
2024/01/13 13:37:55;;;;;;;21.35;12.88;;;;;;;;;;5059722;27;100421;-77
2024/01/13 13:40:22;;;;;;;32.22;19.23;;;;;;;;;;5060118;27;100207;-77
2024/01/13 13:42:48;;;;;;;27.92;19.58;;;;;;;;;;5048470;27;99666;-77
2024/01/13 13:45:15;;;;;;;24.67;17.42;;;;;;;;;;5053215;27;99853;-76
2024/01/13 13:47:42;;;;;;;27.45;18.75;;;;;;;;;;5056024;27;99947;-76
2024/01/13 13:50:09;;;;;;;29.83;19.27;;;;;;;;;;5059476;27;101084;-76
2024/01/13 13:52:36;;;;;;;31.08;19.10;;;;;;;;;;5059158;27;100379;-76
2024/01/13 13:55:02;;;;;;;28.73;19.48;;;;;;;;;;5057887;27;100607;-77
2024/01/13 13:57:32;;;;;;;30.92;21.52;;;;;;;;;;5057336;27;100600;-77
2024/01/13 13:59:58;;;;;;;31.45;19.73;;;;;;;;;;5058829;27;100234;-77
2024/01/13 14:02:25;;;;;;;35.60;20.02;;;;;;;;;;5060777;27;100277;-77
2024/01/13 14:04:51;;;;;;;30.65;19.75;;;;;;;;;;5060715;27;100432;-77
2024/01/13 14:07:38;;;;;;;32.60;19.27;;;;;;;;;;5057395;27;100120;-77
2024/01/13 14:10:04;;;;;;;27.20;18.75;;;;;;;;;;5049970;27;100182;-76
2024/01/13 14:12:31;;;;;;;31.65;19.10;;;;;;;;;;5062279;27;100212;-76
2024/01/13 14:14:57;;;;;;;29.48;18.70;;;;;;;;;;5054308;27;100143;-75
2024/01/13 14:17:42;;;;;;;19.33;14.80;;;;;;;;;;5062629;27;100245;-77
2024/01/13 14:20:08;;;;;;;30.02;17.05;;;;;;;;;;5061047;27;100100;-77
2024/01/13 14:22:35;;;;;;;21.20;15.73;;;;;;;;;;5061437;27;100457;-77
2024/01/13 14:25:03;;;;;;;25.83;16.23;;;;;;;;;;5068310;27;100130;-77
2024/01/13 14:27:40;;;;;;;29.00;16.77;;;;;;;;;;5061609;27;98892;-78